Time;durP1;ratioP1;P1;durP2;ratioP2;P2;SDS_P1;SDS_P2;PMS_P1;PMS_P2;Temp;Humidity;BMP_temperature;BMP_pressure;BME280_temperature;BME280_humidity;BME280_pressure;Samples;Min_cycle;Max_cycle;Signal;HPM_P1;HPM_P2
2021/01/15 00:01:36;;;;;;;;;;;-0.40;99.90;;;;;;5089237;28;19940;-81
2021/01/15 00:04:02;;;;;;;;;;;-0.40;99.90;;;;;;5092939;28;19908;-81
2021/01/15 00:06:28;;;;;;;;;;;-0.40;99.90;;;;;;5093534;28;19912;-83
2021/01/15 00:08:53;;;;;;;;;;;-0.40;99.90;;;;;;5094081;28;19914;-81
2021/01/15 00:11:22;;;;;;;;;;;-0.40;99.90;;;;;;5093340;28;19908;-81
2021/01/15 00:13:47;;;;;;;;;;;-0.40;99.90;;;;;;5076126;28;19909;-81
2021/01/15 00:16:19;;;;;;;;;;;-0.40;99.90;;;;;;5086198;28;19916;-81
2021/01/15 00:18:44;;;;;;;;;;;-0.50;99.90;;;;;;5074527;28;19919;-81
2021/01/15 00:21:17;;;;;;;;;;;-0.50;99.90;;;;;;5074441;28;19913;-83
2021/01/15 00:23:42;;;;;;;;;;;-0.40;99.90;;;;;;5075179;28;20357;-81
2021/01/15 00:26:14;;;;;;;;;;;-0.40;99.90;;;;;;5075760;28;19916;-83
2021/01/15 00:28:39;;;;;;;;;;;-0.50;99.90;;;;;;5082411;28;19995;-81
2021/01/15 00:31:04;;;;;;;;;;;-0.40;99.90;;;;;;5074269;28;19959;-81
2021/01/15 00:33:30;;;;;;;;;;;-0.40;99.90;;;;;;5073958;28;19912;-84
2021/01/15 00:35:57;;;;;;;;;;;-0.50;99.90;;;;;;5091830;28;20002;-81
2021/01/15 00:38:22;;;;;;;;;;;-0.50;99.90;;;;;;5093319;28;19918;-83
2021/01/15 00:40:56;;;;;;;;;;;-0.50;99.90;;;;;;5086068;28;19909;-81
2021/01/15 00:43:21;;;;;;;;;;;-0.50;99.90;;;;;;5072498;28;19958;-81
2021/01/15 00:45:47;;;;;;;;;;;-0.50;99.90;;;;;;5072170;28;19908;-82
2021/01/15 00:48:13;;;;;;;;;;;-0.50;99.90;;;;;;5074191;28;20261;-81
2021/01/15 00:50:38;;;;;;;;;;;-0.50;99.90;;;;;;5088611;28;19965;-81
2021/01/15 00:53:03;;;;;;;;;;;-0.50;99.90;;;;;;5091930;28;20280;-81
2021/01/15 00:55:29;;;;;;;;;;;-0.50;99.90;;;;;;5091457;28;19908;-81
2021/01/15 00:57:54;;;;;;;;;;;-0.50;99.90;;;;;;5085154;28;19947;-81
2021/01/15 01:00:20;;;;;;;;;;;-0.50;99.90;;;;;;5077274;28;19913;-81
2021/01/15 01:02:46;;;;;;;;;;;-0.60;99.90;;;;;;5087139;28;20300;-81
2021/01/15 01:05:11;;;;;;;;;;;-0.60;99.90;;;;;;5078606;28;20011;-81
2021/01/15 01:07:43;;;;;;;;;;;-0.60;99.90;;;;;;5073414;28;19909;-83
2021/01/15 01:10:11;;;;;;;;;;;-0.60;99.90;;;;;;5071865;28;19909;-81
2021/01/15 01:12:41;;;;;;;;;;;-0.70;99.90;;;;;;5072559;28;19943;-83
2021/01/15 01:15:07;;;;;;;;;;;-0.60;99.90;;;;;;5072153;28;19909;-81
2021/01/15 01:17:33;;;;;;;;;;;-0.70;99.90;;;;;;5074475;28;19913;-83
2021/01/15 01:19:58;;;;;;;;;;;-0.60;99.90;;;;;;5077711;28;19930;-81
2021/01/15 01:22:24;;;;;;;;;;;-0.60;99.90;;;;;;5077519;28;19908;-81
2021/01/15 01:24:49;;;;;;;;;;;-0.60;99.90;;;;;;5075814;28;19912;-82
2021/01/15 01:27:15;;;;;;;;;;;-0.60;99.90;;;;;;5099513;28;19912;-83
2021/01/15 01:29:40;;;;;;;;;;;-0.60;99.90;;;;;;5085528;28;19962;-81
2021/01/15 01:32:06;;;;;;;;;;;-0.60;99.90;;;;;;5073708;28;19966;-81
2021/01/15 01:34:31;;;;;;;;;;;-0.60;99.90;;;;;;5080550;28;19908;-81
2021/01/15 01:36:56;;;;;;;;;;;-0.60;99.90;;;;;;5094022;28;19920;-81
2021/01/15 01:39:22;;;;;;;;;;;-0.50;99.90;;;;;;5093043;28;20003;-81
2021/01/15 01:41:47;;;;;;;;;;;-0.60;99.90;;;;;;5093648;28;19908;-81
2021/01/15 01:44:13;;;;;;;;;;;-0.60;99.90;;;;;;5094707;28;19916;-80
2021/01/15 01:46:38;;;;;;;;;;;-0.60;99.90;;;;;;5092785;28;20395;-81
2021/01/15 01:49:04;;;;;;;;;;;-0.50;99.90;;;;;;5095091;28;19908;-81
2021/01/15 01:51:30;;;;;;;;;;;-0.50;99.90;;;;;;5094997;28;20384;-81
2021/01/15 01:53:56;;;;;;;;;;;-0.50;99.90;;;;;;5094184;28;20033;-82
2021/01/15 01:56:21;;;;;;;;;;;-0.50;99.90;;;;;;5085700;28;20357;-80
2021/01/15 01:58:47;;;;;;;;;;;-0.50;99.90;;;;;;5081392;28;19912;-81
2021/01/15 02:01:12;;;;;;;;;;;-0.50;99.90;;;;;;5074583;28;20365;-84
2021/01/15 02:03:38;;;;;;;;;;;-0.50;99.90;;;;;;5090271;28;19908;-81
2021/01/15 02:06:04;;;;;;;;;;;-0.50;99.90;;;;;;5080332;28;19912;-81
2021/01/15 02:08:30;;;;;;;;;;;-0.50;99.90;;;;;;5074144;28;20024;-81
2021/01/15 02:11:25;;;;;;;;;;;-0.50;99.90;;;;;;5075500;28;20381;-81
2021/01/15 02:13:57;;;;;;;;;;;-0.50;99.90;;;;;;5036479;28;20516;-81
2021/01/15 02:16:23;;;;;;;;;;;-0.50;99.90;;;;;;5093117;28;19915;-82
2021/01/15 02:19:02;;;;;;;;;;;-0.50;99.90;;;;;;5094820;28;19912;-81
2021/01/15 02:21:31;;;;;;;;;;;-0.50;99.90;;;;;;5095045;28;19908;-81
2021/01/15 02:24:15;;;;;;;;;;;-0.50;99.90;;;;;;5099060;28;19908;-80
2021/01/15 02:26:40;;;;;;;;;;;-0.60;99.90;;;;;;5108290;28;19912;-79
2021/01/15 02:29:06;;;;;;;;;;;-0.60;99.90;;;;;;5104548;28;19915;-80
2021/01/15 02:31:56;;;;;;;;;;;-0.70;99.90;;;;;;5101535;28;19926;-80
2021/01/15 02:34:24;;;;;;;;;;;-0.70;99.90;;;;;;5095079;28;19916;-80
2021/01/15 02:37:06;;;;;;;;;;;-0.80;99.90;;;;;;5085381;28;19919;-79
2021/01/15 02:39:50;;;;;;;;;;;-0.80;99.90;;;;;;5099539;28;19915;-80
2021/01/15 02:42:16;;;;;;;;;;;-0.80;99.90;;;;;;5104440;28;19908;-80
2021/01/15 02:44:42;;;;;;;;;;;-0.80;99.90;;;;;;5104226;28;19908;-80
2021/01/15 02:47:13;;;;;;;;;;;-0.90;99.90;;;;;;5103526;28;20005;-80
2021/01/15 02:49:41;;;;;;;;;;;-0.90;99.90;;;;;;5104064;28;20330;-80
2021/01/15 02:52:08;;;;;;;;;;;-0.90;99.90;;;;;;5103779;28;19915;-80
2021/01/15 02:54:33;;;;;;;;;;;-1.00;99.90;;;;;;5097714;28;19912;-80
2021/01/15 02:56:59;;;;;;;;;;;-1.00;99.90;;;;;;5092625;28;19934;-79
2021/01/15 02:59:24;;;;;;;;;;;-1.00;99.90;;;;;;5083884;28;19908;-80
2021/01/15 03:02:09;;;;;;;;;;;-1.10;99.90;;;;;;5082700;28;19913;-80
2021/01/15 03:04:53;;;;;;;;;;;-1.10;99.90;;;;;;5083988;28;19908;-80
2021/01/15 03:07:19;;;;;;;;;;;-1.10;99.90;;;;;;5096388;28;20293;-80
2021/01/15 03:09:46;;;;;;;;;;;-1.10;99.90;;;;;;5084046;28;20323;-79
2021/01/15 03:12:14;;;;;;;;;;;-1.10;99.90;;;;;;5082851;28;19909;-80
2021/01/15 03:14:40;;;;;;;;;;;-1.10;99.90;;;;;;5088740;28;19916;-79
2021/01/15 03:17:07;;;;;;;;;;;-1.20;99.90;;;;;;5100625;28;19912;-80
2021/01/15 03:19:33;;;;;;;;;;;-1.20;99.90;;;;;;5100648;28;19908;-80
2021/01/15 03:22:07;;;;;;;;;;;-1.20;99.90;;;;;;5101960;28;20365;-79
2021/01/15 03:24:32;;;;;;;;;;;-1.30;99.90;;;;;;5098882;28;19917;-79
2021/01/15 03:26:59;;;;;;;;;;;-1.30;99.90;;;;;;5090825;28;19964;-79
2021/01/15 03:29:24;;;;;;;;;;;-1.30;99.90;;;;;;5080468;28;20411;-79
2021/01/15 03:31:49;;;;;;;;;;;-1.30;99.90;;;;;;5081868;28;19920;-79
2021/01/15 03:34:15;;;;;;;;;;;-1.40;99.90;;;;;;5080087;28;20377;-79
2021/01/15 03:36:40;;;;;;;;;;;-1.30;99.90;;;;;;5080721;28;19939;-80
2021/01/15 03:39:06;;;;;;;;;;;-1.30;99.90;;;;;;5099754;28;19916;-79
2021/01/15 03:41:31;;;;;;;;;;;-1.30;99.90;;;;;;5098333;28;19908;-79
2021/01/15 03:43:57;;;;;;;;;;;-1.30;99.90;;;;;;5099797;28;19954;-80
2021/01/15 03:46:22;;;;;;;;;;;-1.30;99.90;;;;;;5097556;28;19908;-79
2021/01/15 03:48:48;;;;;;;;;;;-1.40;99.90;;;;;;5096689;28;20441;-79
2021/01/15 03:51:13;;;;;;;;;;;-1.40;99.90;;;;;;5086790;28;19913;-79
2021/01/15 03:53:44;;;;;;;;;;;-1.50;99.90;;;;;;5085835;28;19908;-79
2021/01/15 03:56:09;;;;;;;;;;;-1.50;99.90;;;;;;5087074;28;19909;-79
2021/01/15 03:58:35;;;;;;;;;;;-1.50;99.90;;;;;;5088510;28;20324;-79
2021/01/15 04:01:00;;;;;;;;;;;-1.50;99.90;;;;;;5088519;28;20006;-79
2021/01/15 04:03:26;;;;;;;;;;;-1.50;99.90;;;;;;5094853;28;19908;-79
2021/01/15 04:05:51;;;;;;;;;;;-1.50;99.90;;;;;;5096270;28;20276;-79
2021/01/15 04:08:17;;;;;;;;;;;-1.50;99.90;;;;;;5096875;28;19915;-79
2021/01/15 04:10:42;;;;;;;;;;;-1.50;99.90;;;;;;5090387;28;20011;-79
2021/01/15 04:13:07;;;;;;;;;;;-1.50;99.90;;;;;;5100595;28;20369;-79
2021/01/15 04:15:33;;;;;;;;;;;-1.50;99.90;;;;;;5104617;28;20372;-79
2021/01/15 04:17:59;;;;;;;;;;;-1.60;99.90;;;;;;5092493;28;19979;-79
2021/01/15 04:20:24;;;;;;;;;;;-1.60;99.90;;;;;;5088920;28;19908;-79
2021/01/15 04:22:50;;;;;;;;;;;-1.60;99.90;;;;;;5075110;28;19935;-79
2021/01/15 04:25:15;;;;;;;;;;;-1.70;99.90;;;;;;5083923;28;20030;-79
2021/01/15 04:27:41;;;;;;;;;;;-1.60;99.90;;;;;;5092315;28;20364;-79
2021/01/15 04:30:08;;;;;;;;;;;-1.60;99.90;;;;;;5071605;28;19912;-79
2021/01/15 04:32:34;;;;;;;;;;;-1.60;99.90;;;;;;5079935;28;20330;-79
2021/01/15 04:35:00;;;;;;;;;;;-1.70;99.90;;;;;;5092796;28;19908;-79
2021/01/15 04:37:25;;;;;;;;;;;-1.70;99.90;;;;;;5095313;28;20145;-79
2021/01/15 04:39:51;;;;;;;;;;;-1.80;99.90;;;;;;5093602;28;20387;-79
2021/01/15 04:42:16;;;;;;;;;;;-1.90;99.90;;;;;;5086355;28;19914;-79
2021/01/15 04:44:45;;;;;;;;;;;-1.90;99.90;;;;;;5085731;28;19959;-79
2021/01/15 04:47:11;;;;;;;;;;;-2.00;99.90;;;;;;5073084;28;19913;-79
2021/01/15 04:49:36;;;;;;;;;;;-2.10;99.90;;;;;;5074777;28;20266;-79
2021/01/15 04:52:02;;;;;;;;;;;-2.00;99.90;;;;;;5074420;28;19935;-79
2021/01/15 04:54:35;;;;;;;;;;;-2.00;99.90;;;;;;5072651;28;19908;-79
2021/01/15 04:57:03;;;;;;;;;;;-2.10;99.90;;;;;;5069431;28;19939;-79
2021/01/15 04:59:29;;;;;;;;;;;-2.10;99.90;;;;;;5072469;28;19908;-79
2021/01/15 05:02:00;;;;;;;;;;;-2.10;99.90;;;;;;5072581;28;19916;-79
2021/01/15 05:04:26;;;;;;;;;;;-2.20;99.90;;;;;;5072228;28;20277;-79
2021/01/15 05:06:52;;;;;;;;;;;-2.20;99.90;;;;;;5070749;28;19913;-79
2021/01/15 05:09:19;;;;;;;;;;;-2.30;99.90;;;;;;5072229;28;19909;-79
2021/01/15 05:11:46;;;;;;;;;;;-2.30;99.90;;;;;;5080610;28;20348;-79
2021/01/15 05:14:13;;;;;;;;;;;-2.30;99.90;;;;;;5087918;28;20308;-79
2021/01/15 05:16:40;;;;;;;;;;;-2.40;99.90;;;;;;5072309;28;20383;-79
2021/01/15 05:19:06;;;;;;;;;;;-2.30;99.90;;;;;;5072841;28;19916;-80
2021/01/15 05:21:35;;;;;;;;;;;-2.40;99.90;;;;;;5078677;28;19909;-79
2021/01/15 05:24:02;;;;;;;;;;;-2.40;99.90;;;;;;5072212;28;19919;-79
2021/01/15 05:26:27;;;;;;;;;;;-2.40;99.90;;;;;;5074371;28;19909;-79
2021/01/15 05:28:53;;;;;;;;;;;-2.40;99.90;;;;;;5076121;28;20011;-79
2021/01/15 05:31:22;;;;;;;;;;;-2.40;99.90;;;;;;5087014;28;20007;-79
2021/01/15 05:34:23;;;;;;;;;;;-2.50;99.90;;;;;;5095825;28;19908;-80
2021/01/15 05:36:48;;;;;;;;;;;-2.50;99.90;;;;;;5009247;28;19910;-79
2021/01/15 05:39:20;;;;;;;;;;;-2.60;99.90;;;;;;5058614;28;20353;-79
2021/01/15 05:41:46;;;;;;;;;;;-2.60;99.90;;;;;;5071210;28;19950;-79
2021/01/15 05:44:23;;;;;;;;;;;-2.70;99.90;;;;;;5073433;28;20387;-79
2021/01/15 05:46:49;;;;;;;;;;;-2.70;99.90;;;;;;5090978;28;20262;-79
2021/01/15 05:49:14;;;;;;;;;;;-2.70;99.90;;;;;;5091135;28;19914;-79
2021/01/15 05:51:40;;;;;;;;;;;-2.80;99.90;;;;;;5089920;28;20011;-78
2021/01/15 05:54:07;;;;;;;;;;;-2.80;99.90;;;;;;5089920;28;19908;-79
2021/01/15 05:56:45;;;;;;;;;;;-2.80;99.90;;;;;;5090598;28;20365;-79
2021/01/15 05:59:10;;;;;;;;;;;-2.80;99.90;;;;;;5079591;28;20281;-79
2021/01/15 06:01:40;;;;;;;;;;;-2.80;99.90;;;;;;5090376;28;20000;-79
2021/01/15 06:04:05;;;;;;;;;;;-2.90;99.90;;;;;;5093939;28;19908;-79
2021/01/15 06:06:32;;;;;;;;;;;-2.90;99.90;;;;;;5093114;28;20356;-79
2021/01/15 06:09:02;;;;;;;;;;;-3.00;99.90;;;;;;5094348;28;19912;-79
2021/01/15 06:11:28;;;;;;;;;;;-3.20;99.90;;;;;;5094416;28;20352;-79
2021/01/15 06:13:54;;;;;;;;;;;-3.30;99.90;;;;;;5088750;28;19995;-79
2021/01/15 06:16:19;;;;;;;;;;;-3.50;99.90;;;;;;5076452;28;19915;-78
2021/01/15 06:18:58;;;;;;;;;;;-3.60;99.90;;;;;;5093833;28;19919;-79
2021/01/15 06:21:28;;;;;;;;;;;-3.70;99.90;;;;;;5092839;28;20364;-79
2021/01/15 06:23:55;;;;;;;;;;;-3.70;99.90;;;;;;5094052;28;20367;-79
2021/01/15 06:26:29;;;;;;;;;;;-3.80;99.90;;;;;;5093648;28;19912;-79
2021/01/15 06:29:03;;;;;;;;;;;-3.80;99.90;;;;;;5094039;28;19908;-78
2021/01/15 06:31:30;;;;;;;;;;;-3.90;99.90;;;;;;5088255;28;20350;-79
2021/01/15 06:34:01;;;;;;;;;;;-3.90;99.90;;;;;;5099994;28;20369;-79
2021/01/15 06:36:45;;;;;;;;;;;-3.90;99.90;;;;;;5081312;28;19908;-79
2021/01/15 06:39:11;;;;;;;;;;;-4.00;99.90;;;;;;5092453;28;19949;-81
2021/01/15 06:41:39;;;;;;;;;;;-4.00;99.90;;;;;;5092561;28;19908;-79
2021/01/15 06:44:14;;;;;;;;;;;-4.00;99.90;;;;;;5076422;28;19908;-78
2021/01/15 06:46:42;;;;;;;;;;;-4.20;99.90;;;;;;5071724;28;19915;-79
2021/01/15 06:49:12;;;;;;;;;;;-4.30;99.90;;;;;;5091383;28;19908;-79
2021/01/15 06:51:43;;;;;;;;;;;-4.40;99.90;;;;;;5088636;28;19932;-78
2021/01/15 06:54:09;;;;;;;;;;;-4.50;99.90;;;;;;5092554;28;19948;-79
2021/01/15 06:56:37;;;;;;;;;;;-4.60;99.90;;;;;;5092860;28;19954;-80
2021/01/15 06:59:10;;;;;;;;;;;-4.60;99.90;;;;;;5093175;28;19912;-78
2021/01/15 07:01:36;;;;;;;;;;;-4.70;99.90;;;;;;5100617;28;19915;-78
2021/01/15 07:04:20;;;;;;;;;;;-4.80;99.90;;;;;;5091388;28;19912;-78
2021/01/15 07:06:56;;;;;;;;;;;-4.80;99.90;;;;;;5091598;28;19991;-78
2021/01/15 07:09:25;;;;;;;;;;;-4.90;99.90;;;;;;5091845;28;19909;-78
2021/01/15 07:11:52;;;;;;;;;;;-4.90;99.90;;;;;;5090038;28;20396;-78
2021/01/15 07:14:20;;;;;;;;;;;-4.90;99.90;;;;;;5071274;28;20281;-78
2021/01/15 07:16:51;;;;;;;;;;;-5.00;99.90;;;;;;5089243;28;19908;-78
2021/01/15 07:19:19;;;;;;;;;;;-5.00;99.90;;;;;;5075812;28;19978;-78
2021/01/15 07:22:03;;;;;;;;;;;-5.00;99.90;;;;;;5072805;28;19955;-78
2021/01/15 07:24:35;;;;;;;;;;;-5.00;99.90;;;;;;5072765;28;19908;-78
2021/01/15 07:27:00;;;;;;;;;;;-5.00;99.90;;;;;;5072118;28;19917;-78
2021/01/15 07:29:27;;;;;;;;;;;-5.10;99.90;;;;;;5072565;28;19908;-78
2021/01/15 07:31:57;;;;;;;;;;;-5.10;99.90;;;;;;5097167;28;19923;-78
2021/01/15 07:34:26;;;;;;;;;;;-5.00;99.90;;;;;;5093522;28;19908;-78
2021/01/15 07:36:51;;;;;;;;;;;-5.00;99.90;;;;;;5092385;28;19908;-78
2021/01/15 07:39:24;;;;;;;;;;;-5.00;99.90;;;;;;5079156;28;19914;-78
2021/01/15 07:41:53;;;;;;;;;;;-5.00;99.90;;;;;;5084665;28;19915;-78
2021/01/15 07:44:24;;;;;;;;;;;-5.00;99.90;;;;;;5092585;28;19998;-78
2021/01/15 07:46:51;;;;;;;;;;;-5.10;99.90;;;;;;5083150;28;19960;-79
2021/01/15 07:49:16;;;;;;;;;;;-5.10;99.90;;;;;;5075683;28;19916;-78
2021/01/15 07:51:42;;;;;;;;;;;-5.10;99.90;;;;;;5087175;28;19915;-78
2021/01/15 07:54:08;;;;;;;;;;;-5.10;99.90;;;;;;5070879;28;19986;-78
2021/01/15 07:56:33;;;;;;;;;;;-5.10;99.90;;;;;;5084890;28;19931;-78
2021/01/15 07:58:59;;;;;;;;;;;-5.00;99.90;;;;;;5071952;28;19920;-78
2021/01/15 08:01:25;;;;;;;;;;;-5.00;99.90;;;;;;5076852;28;19908;-78
2021/01/15 08:03:56;;;;;;;;;;;-4.90;99.90;;;;;;5077321;28;20401;-78
2021/01/15 08:06:22;;;;;;;;;;;-4.90;99.90;;;;;;5085304;28;19908;-78
2021/01/15 08:08:58;;;;;;;;;;;-4.90;99.90;;;;;;5091445;28;19908;-78
2021/01/15 08:11:23;;;;;;;;;;;-4.90;99.90;;;;;;5072175;28;19909;-78
2021/01/15 08:13:49;;;;;;;;;;;-4.80;99.90;;;;;;5072009;28;19961;-78
2021/01/15 08:16:14;;;;;;;;;;;-4.70;99.90;;;;;;5085064;28;19908;-78
2021/01/15 08:18:41;;;;;;;;;;;-4.60;99.90;;;;;;5091325;28;20336;-78
2021/01/15 08:21:07;;;;;;;;;;;-4.60;99.90;;;;;;5091211;28;20361;-78
2021/01/15 08:23:32;;;;;;;;;;;-4.50;99.90;;;;;;5092271;28;19915;-78
2021/01/15 08:26:01;;;;;;;;;;;-4.40;99.90;;;;;;5089331;28;19916;-78
2021/01/15 08:28:27;;;;;;;;;;;-4.30;99.90;;;;;;5072538;28;19908;-78
2021/01/15 08:30:59;;;;;;;;;;;-4.20;99.90;;;;;;5077927;28;19922;-78
2021/01/15 08:33:25;;;;;;;;;;;-4.00;99.90;;;;;;5078592;28;19996;-78
2021/01/15 08:35:54;;;;;;;;;;;-3.70;99.90;;;;;;5072140;28;19959;-78
2021/01/15 08:38:33;;;;;;;;;;;-3.40;99.90;;;;;;5071646;28;19912;-78
2021/01/15 08:40:59;;;;;;;;;;;-3.10;99.90;;;;;;5071469;28;19916;-78
2021/01/15 08:43:25;;;;;;;;;;;-2.80;99.90;;;;;;5069751;28;20295;-78
2021/01/15 08:45:51;;;;;;;;;;;-2.50;99.90;;;;;;5069768;28;19964;-78
2021/01/15 08:48:18;;;;;;;;;;;-2.20;99.90;;;;;;5071244;28;19912;-78
2021/01/15 08:50:44;;;;;;;;;;;-2.00;99.90;;;;;;5071765;28;19908;-78
2021/01/15 08:53:10;;;;;;;;;;;-1.90;99.90;;;;;;5070076;28;19908;-78
2021/01/15 08:55:39;;;;;;;;;;;-1.80;99.90;;;;;;5070583;28;19912;-78
2021/01/15 08:58:06;;;;;;;;;;;-1.50;99.90;;;;;;5072487;28;19920;-78
2021/01/15 09:00:34;;;;;;;;;;;-1.30;99.90;;;;;;5072370;28;19915;-78
2021/01/15 09:02:59;;;;;;;;;;;-0.90;99.90;;;;;;5087142;28;19930;-78
2021/01/15 09:05:25;;;;;;;;;;;-0.50;99.90;;;;;;5073243;28;20365;-78
2021/01/15 09:07:53;;;;;;;;;;;-0.10;99.90;;;;;;5070991;28;19912;-79
2021/01/15 09:10:19;;;;;;;;;;;0.40;99.90;;;;;;5070933;28;19908;-79
2021/01/15 09:12:46;;;;;;;;;;;0.90;99.90;;;;;;5071131;28;19909;-79
2021/01/15 09:15:20;;;;;;;;;;;1.20;99.90;;;;;;5070192;28;20319;-79
2021/01/15 09:17:47;;;;;;;;;;;1.40;99.90;;;;;;5070776;28;20015;-78
2021/01/15 09:20:14;;;;;;;;;;;1.60;99.90;;;;;;5069637;28;20350;-79
2021/01/15 09:22:39;;;;;;;;;;;1.90;99.90;;;;;;5071214;28;20422;-79
2021/01/15 09:25:05;;;;;;;;;;;2.20;99.90;;;;;;5071461;28;19913;-79
2021/01/15 09:27:30;;;;;;;;;;;2.30;99.90;;;;;;5071217;28;20393;-79
2021/01/15 09:29:56;;;;;;;;;;;2.50;99.90;;;;;;5071929;28;19967;-79
2021/01/15 09:32:21;;;;;;;;;;;2.60;99.90;;;;;;5081062;28;19913;-79
2021/01/15 09:34:47;;;;;;;;;;;2.80;99.90;;;;;;5091667;28;20357;-79
2021/01/15 09:37:12;;;;;;;;;;;3.10;99.90;;;;;;5091066;28;19912;-79
2021/01/15 09:39:38;;;;;;;;;;;3.20;99.90;;;;;;5095530;28;19946;-79
2021/01/15 09:42:03;;;;;;;;;;;3.60;99.90;;;;;;5082981;28;19908;-79
2021/01/15 09:44:30;;;;;;;;;;;3.90;99.90;;;;;;5077132;28;20348;-78
2021/01/15 09:46:57;;;;;;;;;;;4.20;99.90;;;;;;5077423;28;19908;-79
2021/01/15 09:49:23;;;;;;;;;;;4.70;99.90;;;;;;5096858;28;19908;-79
2021/01/15 09:51:50;;;;;;;;;;;5.10;99.90;;;;;;5096383;28;20089;-79
2021/01/15 09:54:15;;;;;;;;;;;5.60;99.90;;;;;;5090547;28;19920;-79
2021/01/15 09:56:41;;;;;;;;;;;6.00;99.90;;;;;;5076969;28;19912;-79
2021/01/15 09:59:07;;;;;;;;;;;6.40;99.90;;;;;;5076063;28;20007;-80
2021/01/15 10:01:33;;;;;;;;;;;6.80;99.90;;;;;;5097079;28;20416;-79
2021/01/15 10:03:59;;;;;;;;;;;6.90;98.90;;;;;;5085269;28;19923;-79
2021/01/15 10:06:28;;;;;;;;;;;6.60;98.20;;;;;;5074981;28;19952;-79
2021/01/15 10:08:54;;;;;;;;;;;6.80;98.60;;;;;;5076650;28;19920;-79
2021/01/15 10:11:20;;;;;;;;;;;6.90;98.50;;;;;;5075237;28;19909;-79
2021/01/15 10:13:46;;;;;;;;;;;7.00;98.00;;;;;;5076878;28;19908;-79
2021/01/15 10:16:12;;;;;;;;;;;6.90;97.90;;;;;;5076985;28;19931;-79
2021/01/15 10:18:38;;;;;;;;;;;7.00;98.20;;;;;;5076884;28;19965;-79
2021/01/15 10:21:03;;;;;;;;;;;7.10;98.00;;;;;;5075566;28;20362;-79
2021/01/15 10:23:29;;;;;;;;;;;7.10;97.60;;;;;;5077170;28;19912;-79
2021/01/15 10:25:54;;;;;;;;;;;7.20;97.60;;;;;;5075342;28;20263;-80
2021/01/15 10:28:21;;;;;;;;;;;7.00;97.50;;;;;;5086429;28;19913;-79
2021/01/15 10:30:47;;;;;;;;;;;6.70;97.60;;;;;;5087171;28;20354;-79
2021/01/15 10:33:13;;;;;;;;;;;6.30;97.70;;;;;;5089053;28;19915;-79
2021/01/15 10:35:38;;;;;;;;;;;6.00;98.30;;;;;;5079016;28;19912;-79
2021/01/15 10:38:03;;;;;;;;;;;5.40;98.50;;;;;;5091402;28;19917;-80
2021/01/15 10:40:29;;;;;;;;;;;4.90;99.40;;;;;;5074972;28;20487;-79
2021/01/15 10:42:54;;;;;;;;;;;4.50;99.80;;;;;;5092171;28;19915;-79
2021/01/15 10:45:20;;;;;;;;;;;4.20;99.90;;;;;;5095730;28;19912;-79
2021/01/15 10:47:45;;;;;;;;;;;4.00;99.90;;;;;;5095106;28;20132;-79
2021/01/15 10:50:12;;;;;;;;;;;3.60;99.90;;;;;;5094435;28;19976;-79
2021/01/15 10:52:38;;;;;;;;;;;3.30;99.90;;;;;;5094336;28;20320;-79
2021/01/15 10:55:04;;;;;;;;;;;3.10;99.90;;;;;;5093018;28;19908;-79
2021/01/15 10:57:29;;;;;;;;;;;2.90;99.90;;;;;;5091296;28;19934;-78
2021/01/15 10:59:55;;;;;;;;;;;2.80;99.90;;;;;;5080732;28;19908;-78
2021/01/15 11:02:20;;;;;;;;;;;2.70;99.90;;;;;;5085155;28;19918;-78
2021/01/15 11:04:46;;;;;;;;;;;2.60;99.90;;;;;;5092592;28;19961;-78
2021/01/15 11:07:11;;;;;;;;;;;2.70;99.90;;;;;;5072449;28;19913;-78
2021/01/15 11:09:36;;;;;;;;;;;2.90;99.90;;;;;;5072318;28;19908;-78
2021/01/15 11:12:03;;;;;;;;;;;3.00;99.90;;;;;;5073146;28;19913;-78
2021/01/15 11:14:28;;;;;;;;;;;3.00;99.90;;;;;;5071603;28;19919;-78
2021/01/15 11:16:54;;;;;;;;;;;3.10;99.90;;;;;;5071149;28;19909;-78
2021/01/15 11:19:20;;;;;;;;;;;3.10;99.90;;;;;;5072837;28;19912;-78
2021/01/15 11:21:45;;;;;;;;;;;3.10;99.90;;;;;;5072701;28;19912;-78
2021/01/15 11:24:11;;;;;;;;;;;3.00;99.90;;;;;;5090914;28;19912;-78
2021/01/15 11:26:37;;;;;;;;;;;2.80;99.90;;;;;;5090586;28;19915;-78
2021/01/15 11:29:04;;;;;;;;;;;2.60;99.90;;;;;;5092110;28;19951;-78
2021/01/15 11:31:30;;;;;;;;;;;2.50;99.90;;;;;;5086857;28;20288;-78
2021/01/15 11:33:56;;;;;;;;;;;2.30;99.90;;;;;;5082711;28;19915;-78
2021/01/15 11:36:21;;;;;;;;;;;2.00;99.90;;;;;;5072234;28;19924;-78
2021/01/15 11:38:47;;;;;;;;;;;1.80;99.90;;;;;;5072417;28;20070;-78
2021/01/15 11:41:14;;;;;;;;;;;1.70;99.90;;;;;;5072575;28;19909;-78
2021/01/15 11:43:39;;;;;;;;;;;1.70;99.90;;;;;;5071201;28;20133;-78
2021/01/15 11:46:05;;;;;;;;;;;1.60;99.90;;;;;;5071931;28;20265;-78
2021/01/15 11:48:34;;;;;;;;;;;1.50;99.90;;;;;;5072152;28;19982;-77
2021/01/15 11:51:00;;;;;;;;;;;1.40;99.90;;;;;;5071059;28;19915;-77
2021/01/15 11:53:26;;;;;;;;;;;1.30;99.90;;;;;;5072255;28;19908;-77
2021/01/15 11:55:52;;;;;;;;;;;1.10;99.90;;;;;;5071869;28;20296;-77
2021/01/15 11:58:17;;;;;;;;;;;1.00;99.90;;;;;;5071807;28;20364;-77
2021/01/15 12:00:43;;;;;;;;;;;0.90;99.90;;;;;;5071466;28;20402;-77
2021/01/15 12:03:09;;;;;;;;;;;0.80;99.90;;;;;;5087695;28;20465;-77
2021/01/15 12:05:44;;;;;;;;;;;0.80;99.90;;;;;;5076065;28;20411;-77
2021/01/15 12:08:09;;;;;;;;;;;0.80;99.90;;;;;;5071034;28;20280;-77
2021/01/15 12:10:35;;;;;;;;;;;0.80;99.90;;;;;;5070754;28;19908;-77
2021/01/15 12:13:01;;;;;;;;;;;0.70;99.90;;;;;;5071996;28;20480;-77
2021/01/15 12:15:26;;;;;;;;;;;0.70;99.90;;;;;;5071858;28;19987;-77
2021/01/15 12:17:52;;;;;;;;;;;0.80;99.90;;;;;;5069969;28;19912;-77
2021/01/15 12:20:17;;;;;;;;;;;0.70;99.90;;;;;;5070490;28;19914;-77
2021/01/15 12:22:44;;;;;;;;;;;0.70;99.90;;;;;;5071717;28;19915;-77
2021/01/15 12:25:10;;;;;;;;;;;0.60;99.90;;;;;;5071879;28;20262;-77
2021/01/15 12:27:36;;;;;;;;;;;0.60;99.90;;;;;;5070132;28;19909;-77
2021/01/15 12:30:03;;;;;;;;;;;0.60;99.90;;;;;;5071456;28;19951;-77
2021/01/15 12:32:28;;;;;;;;;;;0.60;99.90;;;;;;5080419;28;19931;-77
2021/01/15 12:34:53;;;;;;;;;;;0.50;99.90;;;;;;5082473;28;19908;-77
2021/01/15 12:37:22;;;;;;;;;;;0.50;99.90;;;;;;5073309;28;19912;-77
2021/01/15 12:39:48;;;;;;;;;;;0.50;99.90;;;;;;5075231;28;19934;-77
2021/01/15 12:42:14;;;;;;;;;;;0.50;99.90;;;;;;5071728;28;20007;-77
2021/01/15 12:44:39;;;;;;;;;;;0.50;99.90;;;;;;5071697;28;19916;-77
2021/01/15 12:47:05;;;;;;;;;;;0.40;99.90;;;;;;5070988;28;20299;-77
2021/01/15 12:49:30;;;;;;;;;;;0.40;99.90;;;;;;5070098;28;19914;-77
2021/01/15 12:51:55;;;;;;;;;;;0.40;99.90;;;;;;5071366;28;19962;-77
2021/01/15 12:54:21;;;;;;;;;;;0.40;99.90;;;;;;5074056;28;19954;-77
2021/01/15 12:56:47;;;;;;;;;;;0.50;99.90;;;;;;5075105;28;19908;-77
2021/01/15 12:59:12;;;;;;;;;;;0.40;99.90;;;;;;5070690;28;19912;-77
2021/01/15 13:01:41;;;;;;;;;;;0.40;99.90;;;;;;5080742;28;19997;-77
2021/01/15 13:04:07;;;;;;;;;;;0.40;99.90;;;;;;5075294;28;19922;-77
2021/01/15 13:06:36;;;;;;;;;;;0.50;99.90;;;;;;5071075;28;19976;-77
2021/01/15 13:09:02;;;;;;;;;;;0.40;99.90;;;;;;5071259;28;20007;-77
2021/01/15 13:11:28;;;;;;;;;;;0.40;99.90;;;;;;5071493;28;19916;-77
2021/01/15 13:13:53;;;;;;;;;;;0.50;99.90;;;;;;5075218;28;19908;-77
2021/01/15 13:16:19;;;;;;;;;;;0.50;99.90;;;;;;5075277;28;19950;-77
2021/01/15 13:18:44;;;;;;;;;;;0.60;99.90;;;;;;5074497;28;19912;-77
2021/01/15 13:21:12;;;;;;;;;;;0.60;99.90;;;;;;5076047;28;19908;-77
2021/01/15 13:23:37;;;;;;;;;;;0.50;99.90;;;;;;5074563;28;20433;-77
2021/01/15 13:26:03;;;;;;;;;;;0.60;99.90;;;;;;5074487;28;19959;-77
2021/01/15 13:28:28;;;;;;;;;;;0.60;99.90;;;;;;5074419;28;19943;-77
2021/01/15 13:30:54;;;;;;;;;;;0.60;99.90;;;;;;5076143;28;19943;-77
2021/01/15 13:33:20;;;;;;;;;;;0.60;99.90;;;;;;5087088;28;20365;-77
2021/01/15 13:35:45;;;;;;;;;;;0.60;99.90;;;;;;5075932;28;19908;-77
2021/01/15 13:38:11;;;;;;;;;;;0.60;99.90;;;;;;5074532;28;19917;-77
2021/01/15 13:40:36;;;;;;;;;;;0.60;99.90;;;;;;5074695;28;19915;-77
2021/01/15 13:43:02;;;;;;;;;;;0.60;99.90;;;;;;5072991;28;19912;-77
2021/01/15 13:45:28;;;;;;;;;;;0.60;99.90;;;;;;5074213;28;19942;-77
2021/01/15 13:47:53;;;;;;;;;;;0.70;99.90;;;;;;5074369;28;19912;-77
2021/01/15 13:50:24;;;;;;;;;;;0.70;99.90;;;;;;5074659;28;19932;-77
2021/01/15 13:52:50;;;;;;;;;;;0.60;99.90;;;;;;5074582;28;20003;-77
2021/01/15 13:55:16;;;;;;;;;;;0.60;99.90;;;;;;5074393;28;20426;-78
2021/01/15 13:57:42;;;;;;;;;;;0.60;99.90;;;;;;5072021;28;20384;-78
2021/01/15 14:00:08;;;;;;;;;;;0.60;99.90;;;;;;5075759;28;19909;-77
2021/01/15 14:02:38;;;;;;;;;;;0.60;99.90;;;;;;5091950;28;19973;-78
2021/01/15 14:05:04;;;;;;;;;;;0.60;99.90;;;;;;5074121;28;19908;-78
2021/01/15 14:07:30;;;;;;;;;;;0.50;99.90;;;;;;5081804;28;20387;-77
2021/01/15 14:09:55;;;;;;;;;;;0.50;99.90;;;;;;5090841;28;19908;-78
2021/01/15 14:12:20;;;;;;;;;;;0.50;99.90;;;;;;5090451;28;20369;-78
2021/01/15 14:14:47;;;;;;;;;;;0.50;99.90;;;;;;5089833;28;20008;-77
2021/01/15 14:17:12;;;;;;;;;;;0.50;99.90;;;;;;5088200;28;19915;-78
2021/01/15 14:19:38;;;;;;;;;;;0.60;99.90;;;;;;5090399;28;19908;-78
2021/01/15 14:22:03;;;;;;;;;;;0.50;99.90;;;;;;5091244;28;19908;-78